KHTS

Tri-State / Milton J Ferguson Field Airport

Huntington, West Virginia, USA
METAR KHTS 181351Z 21004KT 10SM OVC011 23/22 A2998 RMK AO2 SLP144 T02280217
Observed Flight Rules
Aug-18 @ 13:51 UTC (60 minutes ago) Marginal Visual Flight Rules
Wind Visibility Clouds
210° at 4 knots 10 miles
  • Overcast at 1,100' AGL
Temperatures Readings
Current 23°C / 73°F
Dewpoint 22°C / 72°F
Humidity 94%
Altimeter 29.98" Hg
Pressure 1014.4 hPa
Elevation 254
METAR KHTS 181351Z 21004KT 10SM OVC011 23/22 A2998 RMK AO2 SLP144 T02280217
Observed Flight Rules
Aug-18 @ 13:51 UTC
(60 minutes ago)
MVFR
Wind Visibility
210° at 4 knots 10 miles
Clouds
  • Overcast at 1,100' AGL
Temperature Dewpoint
23°C / 73°F 22°C / 72°F
Humidity Altimeter Pressure
94% 29.98" Hg 1014.4 hPa